createdAt,value
2018-11-21T00:02:05.337Z,27.47
2018-11-21T00:04:46.445Z,27.70
2018-11-21T00:07:28.237Z,33.17
2018-11-21T00:10:07.128Z,31.23
2018-11-21T00:12:56.226Z,29.57
2018-11-21T00:15:44.671Z,31.33
2018-11-21T00:18:33.109Z,28.87
2018-11-21T00:21:21.611Z,29.30
2018-11-21T00:24:10.091Z,27.40
2018-11-21T00:26:58.702Z,29.77
2018-11-21T00:29:47.134Z,28.63
2018-11-21T00:32:35.591Z,28.90
2018-11-21T00:35:23.981Z,31.63
2018-11-21T00:41:25.809Z,30.33
2018-11-21T00:44:14.241Z,31.20
2018-11-21T00:47:02.711Z,30.00
2018-11-21T00:49:51.208Z,29.47
2018-11-21T00:52:39.665Z,29.03
2018-11-21T00:55:08.803Z,31.63
2018-11-21T00:57:57.211Z,31.37
2018-11-21T01:00:45.697Z,30.57
2018-11-21T01:03:34.160Z,30.50
2018-11-21T01:06:22.631Z,31.20
2018-11-21T01:09:11.967Z,29.80
2018-11-21T01:15:13.862Z,30.57
2018-11-21T01:18:02.376Z,31.03
2018-11-21T01:20:50.767Z,30.73
2018-11-21T01:23:39.218Z,29.63
2018-11-21T01:26:27.654Z,30.33
2018-11-21T01:29:16.138Z,29.40
2018-11-21T01:32:04.656Z,30.10
2018-11-21T01:34:53.096Z,32.27
2018-11-21T01:37:41.508Z,33.47
2018-11-21T01:40:29.969Z,31.17
2018-11-21T01:43:18.422Z,34.13
2018-11-21T01:46:06.834Z,31.20
2018-11-21T01:48:55.247Z,30.43
2018-11-21T01:51:43.679Z,33.20
2018-11-21T01:54:32.189Z,31.30
2018-11-21T01:57:20.591Z,29.70
2018-11-21T02:03:17.508Z,30.00
2018-11-21T02:06:05.148Z,32.27
2018-11-21T02:08:53.564Z,31.23
2018-11-21T02:11:41.980Z,32.40
2018-11-21T02:14:30.435Z,32.10
2018-11-21T02:17:18.817Z,28.40
2018-11-21T02:23:22.334Z,33.03
2018-11-21T02:26:10.766Z,28.30
2018-11-21T02:28:59.238Z,30.60
2018-11-21T02:31:47.635Z,32.50
2018-11-21T02:34:36.088Z,30.80
2018-11-21T02:40:32.087Z,31.40
2018-11-21T02:43:20.492Z,32.20
2018-11-21T02:49:22.506Z,31.20
2018-11-21T02:52:11.010Z,31.73
2018-11-21T02:55:17.543Z,31.10
2018-11-21T02:58:06.044Z,32.07
2018-11-21T03:00:54.562Z,33.00
2018-11-21T03:03:42.979Z,33.13
2018-11-21T03:06:31.427Z,30.87
2018-11-21T03:09:19.894Z,28.77
2018-11-21T03:12:08.929Z,29.30
2018-11-21T03:14:57.341Z,30.30
2018-11-21T03:20:59.879Z,31.20
2018-11-21T03:27:14.552Z,29.20
2018-11-21T03:30:03.621Z,28.27
2018-11-21T03:32:52.049Z,28.80
2018-11-21T03:35:40.501Z,29.83
2018-11-21T03:38:28.896Z,30.60
2018-11-21T03:41:17.520Z,30.93
2018-11-21T03:44:05.957Z,31.17
2018-11-21T03:46:54.411Z,32.27
2018-11-21T03:49:42.844Z,30.87
2018-11-21T03:52:31.299Z,31.93
2018-11-21T03:55:00.341Z,32.90
2018-11-21T03:57:48.809Z,32.40
2018-11-21T04:00:37.199Z,33.67
2018-11-21T04:03:25.643Z,30.60
2018-11-21T04:06:14.035Z,32.33
2018-11-21T04:09:02.602Z,34.03
2018-11-21T04:11:50.997Z,32.33
2018-11-21T04:14:39.496Z,30.40
2018-11-21T04:17:27.914Z,32.60
2018-11-21T04:20:54.943Z,33.13
2018-11-21T04:23:43.394Z,33.93
2018-11-21T04:29:45.344Z,34.50
2018-11-21T04:32:33.816Z,32.13
2018-11-21T04:38:36.832Z,32.00
2018-11-21T04:41:25.268Z,32.40
2018-11-21T04:44:13.705Z,33.70
2018-11-21T04:49:58.953Z,34.90
2018-11-21T04:52:48.605Z,34.27
2018-11-21T04:55:17.652Z,32.90
2018-11-21T04:58:06.119Z,32.17
2018-11-21T05:00:54.616Z,32.60
2018-11-21T05:03:43.315Z,33.90
2018-11-21T05:06:31.768Z,30.93
2018-11-21T05:09:20.585Z,34.60
2018-11-21T05:12:09.062Z,35.50
2018-11-21T05:14:57.593Z,33.07
2018-11-21T05:17:45.999Z,32.80
2018-11-21T05:20:34.425Z,33.13
2018-11-21T05:23:22.820Z,32.60
2018-11-21T05:26:11.388Z,34.70
2018-11-21T05:28:59.796Z,31.23
2018-11-21T05:31:48.231Z,33.50
2018-11-21T05:34:36.811Z,32.83
2018-11-21T05:40:52.492Z,30.77
2018-11-21T05:43:40.874Z,34.10
2018-11-21T05:46:29.328Z,32.87
2018-11-21T05:49:17.765Z,32.23
2018-11-21T05:52:06.234Z,32.17
2018-11-21T05:54:54.738Z,31.90
2018-11-21T05:57:43.160Z,36.50
2018-11-21T06:00:31.605Z,32.83
2018-11-21T06:03:20.041Z,29.53
2018-11-21T06:06:10.054Z,32.50
2018-11-21T06:09:30.889Z,36.47
2018-11-21T06:12:20.643Z,34.20
2018-11-21T06:18:23.771Z,35.13
2018-11-21T06:24:25.747Z,31.07
2018-11-21T06:27:14.135Z,33.83
2018-11-21T06:30:02.845Z,33.87
2018-11-21T06:32:51.335Z,34.73
2018-11-21T06:35:39.771Z,32.80
2018-11-21T06:38:28.195Z,30.10
2018-11-21T06:41:16.616Z,35.40
2018-11-21T06:44:05.231Z,35.23
2018-11-21T06:50:01.334Z,32.43
2018-11-21T06:52:50.307Z,35.33
2018-11-21T06:55:38.691Z,31.17
2018-11-21T06:58:27.173Z,31.47
2018-11-21T07:01:15.554Z,32.60
2018-11-21T07:04:03.990Z,31.33
2018-11-21T07:06:52.400Z,34.13
2018-11-21T07:09:40.821Z,34.37
2018-11-21T07:12:29.690Z,32.10
2018-11-21T07:15:18.153Z,33.83
2018-11-21T07:18:06.542Z,30.73
2018-11-21T07:20:54.977Z,32.73
2018-11-21T07:23:43.456Z,32.30
2018-11-21T07:26:31.786Z,33.50
2018-11-21T07:29:20.285Z,30.60
2018-11-21T07:32:08.696Z,33.23
2018-11-21T07:34:57.431Z,35.30
2018-11-21T07:37:45.830Z,35.83
2018-11-21T07:40:34.245Z,32.03
2018-11-21T07:43:22.701Z,33.90
2018-11-21T07:46:11.190Z,29.80
2018-11-21T07:48:59.588Z,32.67
2018-11-21T07:51:48.039Z,32.73
2018-11-21T07:54:36.487Z,32.50
2018-11-21T08:01:32.113Z,30.20
2018-11-21T08:04:39.648Z,34.80
2018-11-21T08:07:30.001Z,34.80
2018-11-21T08:10:37.609Z,34.03
2018-11-21T08:13:45.184Z,31.60
2018-11-21T08:16:52.884Z,30.60
2018-11-21T08:20:00.598Z,32.40
2018-11-21T08:23:08.199Z,31.13
2018-11-21T08:26:17.518Z,31.37
2018-11-21T08:29:05.957Z,29.90
2018-11-21T08:31:54.382Z,31.63
2018-11-21T08:34:42.361Z,31.80
2018-11-21T08:37:30.804Z,32.40
2018-11-21T08:43:26.916Z,31.60
2018-11-21T08:46:15.396Z,32.67
2018-11-21T08:49:03.830Z,30.97
2018-11-21T08:51:52.300Z,31.80
2018-11-21T08:54:40.723Z,30.83
2018-11-21T08:57:29.149Z,31.80
2018-11-21T09:00:17.574Z,29.87
2018-11-21T09:03:06.564Z,30.07
2018-11-21T09:05:54.994Z,31.77
2018-11-21T09:18:07.899Z,29.80
2018-11-21T09:24:10.533Z,31.63
2018-11-21T09:26:58.934Z,29.33
2018-11-21T09:29:47.399Z,30.87
2018-11-21T09:32:35.788Z,29.13
2018-11-21T09:35:24.249Z,31.17
2018-11-21T09:38:12.761Z,31.50
2018-11-21T09:41:01.162Z,28.20
2018-11-21T09:43:49.610Z,29.70
2018-11-21T09:46:38.000Z,29.00
2018-11-21T09:49:26.563Z,29.70
2018-11-21T09:52:15.007Z,28.40
2018-11-21T09:55:03.462Z,30.57
2018-11-21T09:57:51.888Z,29.00
2018-11-21T10:00:59.746Z,33.10
2018-11-21T10:03:48.136Z,29.10
2018-11-21T10:06:37.579Z,28.17
2018-11-21T10:09:28.971Z,28.60
2018-11-21T10:12:17.397Z,29.10
2018-11-21T10:18:20.253Z,27.30
2018-11-21T10:21:10.801Z,27.13
2018-11-21T10:23:59.228Z,28.87
2018-11-21T10:26:47.664Z,30.40
2018-11-21T10:29:36.099Z,27.27
2018-11-21T10:32:24.546Z,27.70
2018-11-21T10:35:12.962Z,27.13
2018-11-21T10:38:01.401Z,28.33
2018-11-21T10:40:49.852Z,27.70
2018-11-21T10:43:38.515Z,27.30
2018-11-21T10:46:26.968Z,27.73
2018-11-21T10:49:15.366Z,28.20
2018-11-21T10:52:03.804Z,26.87
2018-11-21T10:57:44.078Z,27.27
2018-11-21T11:00:51.631Z,26.77
2018-11-21T11:03:59.218Z,29.50
2018-11-21T11:07:06.834Z,28.90
2018-11-21T11:13:35.405Z,28.03
2018-11-21T11:16:40.577Z,27.67
2018-11-21T11:19:48.190Z,27.23
2018-11-21T11:26:05.975Z,28.80
2018-11-21T11:29:13.548Z,27.40
2018-11-21T11:32:21.164Z,28.13
2018-11-21T11:39:04.579Z,26.50
2018-11-21T11:42:12.144Z,27.90
2018-11-21T11:45:19.728Z,27.30
2018-11-21T11:51:44.191Z,26.13
2018-11-21T11:54:51.794Z,26.53
2018-11-21T11:57:49.580Z,28.00
2018-11-21T12:00:57.519Z,28.90
2018-11-21T12:04:05.087Z,25.00
2018-11-21T12:07:12.682Z,25.40
2018-11-21T12:10:20.238Z,26.80
2018-11-21T12:13:27.834Z,26.90
2018-11-21T12:19:25.258Z,25.07
2018-11-21T12:22:32.862Z,27.27
2018-11-21T12:25:31.153Z,25.20
2018-11-21T12:28:38.742Z,26.00
2018-11-21T12:31:46.359Z,25.63
2018-11-21T12:34:53.996Z,27.80
2018-11-21T12:38:01.629Z,28.37
2018-11-21T12:41:09.502Z,28.77
2018-11-21T12:44:17.065Z,28.53
2018-11-21T12:47:24.675Z,27.80
2018-11-21T12:50:32.287Z,26.03
2018-11-21T12:53:39.907Z,26.77
2018-11-21T12:56:26.814Z,25.73
2018-11-21T12:59:34.439Z,30.07
2018-11-21T13:02:42.075Z,26.20
2018-11-21T13:05:49.648Z,26.23
2018-11-21T13:08:57.295Z,24.07
2018-11-21T13:12:04.926Z,26.07
2018-11-21T13:15:12.569Z,24.40
2018-11-21T13:18:20.185Z,24.80
2018-11-21T13:21:27.809Z,25.87
2018-11-21T13:24:35.386Z,26.57
2018-11-21T13:27:43.071Z,25.90
2018-11-21T13:30:50.644Z,26.43
2018-11-21T13:37:25.012Z,25.30
2018-11-21T13:40:32.612Z,25.30
2018-11-21T13:43:29.149Z,25.53
2018-11-21T13:49:41.585Z,26.10
2018-11-21T13:52:49.158Z,26.90
2018-11-21T13:55:37.615Z,27.20
2018-11-21T13:58:26.028Z,26.20
2018-11-21T14:01:14.460Z,26.67
2018-11-21T14:04:02.882Z,28.43
2018-11-21T14:06:51.356Z,28.23
2018-11-21T14:09:39.830Z,27.03
2018-11-21T14:12:28.278Z,27.47
2018-11-21T14:15:16.767Z,27.80
2018-11-21T14:18:05.514Z,29.27
2018-11-21T14:20:53.939Z,28.20
2018-11-21T14:23:42.378Z,28.23
2018-11-21T14:26:30.869Z,29.77
2018-11-21T14:29:19.392Z,29.87
2018-11-21T14:32:07.797Z,28.60
2018-11-21T14:34:56.228Z,29.20
2018-11-21T14:37:44.797Z,28.60
2018-11-21T14:40:33.265Z,28.30
2018-11-21T14:43:21.671Z,31.03
2018-11-21T14:46:10.697Z,30.00
2018-11-21T14:48:40.184Z,36.40
2018-11-21T14:51:28.802Z,28.77
2018-11-21T14:54:17.320Z,28.00
2018-11-21T14:57:06.025Z,26.13
2018-11-21T15:02:52.010Z,27.30
2018-11-21T15:05:40.472Z,27.40
2018-11-21T15:08:28.891Z,29.70
2018-11-21T15:11:17.365Z,26.30
2018-11-21T15:14:05.853Z,27.53
2018-11-21T15:20:08.949Z,28.40
2018-11-21T15:22:57.358Z,25.33
2018-11-21T15:25:45.800Z,27.60
2018-11-21T15:28:34.195Z,26.70
2018-11-21T15:31:22.655Z,27.73
2018-11-21T15:37:25.356Z,26.73
2018-11-21T15:40:24.189Z,26.27
2018-11-21T15:43:12.624Z,28.33
2018-11-21T15:46:01.071Z,25.97
2018-11-21T15:48:49.623Z,28.07
2018-11-21T15:51:38.771Z,27.80
2018-11-21T15:54:27.254Z,27.63
2018-11-21T15:57:15.749Z,33.70
2018-11-21T16:00:05.330Z,38.47
2018-11-21T16:02:55.466Z,28.07
2018-11-21T16:05:43.852Z,28.10
2018-11-21T16:08:32.317Z,28.03
2018-11-21T16:11:22.562Z,29.50
2018-11-21T16:14:09.260Z,27.17
2018-11-21T16:16:57.721Z,27.90
2018-11-21T16:19:46.145Z,26.23
2018-11-21T16:22:34.605Z,28.03
2018-11-21T16:31:44.897Z,27.83
2018-11-21T16:34:33.400Z,29.20
2018-11-21T16:37:22.037Z,28.00
2018-11-21T16:40:11.734Z,32.50
2018-11-21T16:46:08.238Z,26.97
2018-11-21T16:48:56.655Z,28.50
2018-11-21T16:51:45.101Z,25.70
2018-11-21T16:54:33.539Z,26.67
2018-11-21T16:57:22.011Z,25.43
2018-11-21T17:00:11.938Z,26.57
2018-11-21T17:03:00.470Z,35.40
2018-11-21T17:05:48.896Z,60.10
2018-11-21T17:08:37.360Z,37.30
2018-11-21T17:11:25.810Z,28.30
2018-11-21T17:14:14.317Z,27.00
2018-11-21T17:17:03.128Z,27.60
2018-11-21T17:19:51.586Z,25.97
2018-11-21T17:22:40.101Z,28.40
2018-11-21T17:25:30.329Z,28.67
2018-11-21T17:28:18.743Z,26.50
2018-11-21T17:31:07.177Z,28.07
2018-11-21T17:33:55.630Z,24.50
2018-11-21T17:36:44.098Z,30.30
2018-11-21T17:39:32.505Z,26.93
2018-11-21T17:42:21.011Z,27.67
2018-11-21T17:45:08.512Z,25.70
2018-11-21T17:51:10.749Z,29.63
2018-11-21T17:56:54.641Z,29.43
2018-11-21T17:59:42.695Z,28.90
2018-11-21T18:05:44.895Z,29.80
2018-11-21T18:08:33.392Z,27.30
2018-11-21T18:11:21.909Z,30.10
2018-11-21T18:14:10.279Z,29.03
2018-11-21T18:16:58.704Z,29.87
2018-11-21T18:19:47.104Z,30.17
2018-11-21T18:25:49.836Z,27.80
2018-11-21T18:31:52.233Z,35.97
2018-11-21T18:34:40.644Z,30.97
2018-11-21T18:37:29.082Z,35.07
2018-11-21T18:40:19.104Z,37.00
2018-11-21T18:43:07.608Z,35.20
2018-11-21T18:49:03.554Z,40.77
2018-11-21T18:51:52.006Z,35.90
2018-11-21T18:54:40.449Z,34.77
2018-11-21T18:57:48.322Z,35.60
2018-11-21T19:00:37.045Z,36.80
2018-11-21T19:03:25.966Z,36.80
2018-11-21T19:06:14.422Z,37.57
2018-11-21T19:09:03.076Z,37.57
2018-11-21T19:15:07.611Z,38.93
2018-11-21T19:17:56.023Z,39.40
2018-11-21T19:20:44.447Z,36.97
2018-11-21T19:23:32.951Z,36.23
2018-11-21T19:26:21.422Z,37.23
2018-11-21T19:29:10.070Z,36.40
2018-11-21T19:31:58.561Z,40.40
2018-11-21T19:34:47.007Z,37.43
2018-11-21T19:37:35.428Z,41.00
2018-11-21T19:40:23.896Z,40.37
2018-11-21T19:46:26.658Z,39.67
2018-11-21T19:52:22.666Z,38.30
2018-11-21T19:55:12.883Z,39.20
2018-11-21T19:57:42.540Z,37.67
2018-11-21T20:00:32.195Z,36.40
2018-11-21T20:03:20.653Z,37.50
2018-11-21T20:06:09.276Z,42.27
2018-11-21T20:08:57.686Z,34.80
2018-11-21T20:18:14.372Z,36.20
2018-11-21T20:21:02.856Z,36.33
2018-11-21T20:23:51.307Z,35.93
2018-11-21T20:26:39.756Z,37.17
2018-11-21T20:29:28.184Z,34.80
2018-11-21T20:32:16.617Z,37.33
2018-11-21T20:35:07.942Z,29.50
2018-11-21T20:37:53.837Z,33.83
2018-11-21T20:43:52.006Z,34.17
2018-11-21T20:49:48.092Z,33.03
2018-11-21T20:52:36.570Z,33.50
2018-11-21T20:58:14.723Z,29.87
2018-11-21T21:01:03.121Z,28.57
2018-11-21T21:03:51.657Z,25.70
2018-11-21T21:06:40.091Z,24.57
2018-11-21T21:09:28.497Z,25.27
2018-11-21T21:12:09.616Z,25.33
2018-11-21T21:14:50.790Z,26.27
2018-11-21T21:17:31.907Z,26.10
2018-11-21T21:20:14.746Z,24.80
2018-11-21T21:22:57.989Z,25.73
2018-11-21T21:25:39.416Z,26.90
2018-11-21T21:28:21.346Z,24.90
2018-11-21T21:31:03.194Z,24.60
2018-11-21T21:33:44.940Z,25.23
2018-11-21T21:36:26.020Z,25.77
2018-11-21T21:39:07.131Z,25.10
2018-11-21T21:41:48.740Z,25.30
2018-11-21T21:44:30.339Z,23.57
2018-11-21T21:47:12.253Z,26.40
2018-11-21T21:50:02.242Z,25.07
2018-11-21T21:52:43.552Z,26.33
2018-11-21T21:55:26.376Z,24.20
2018-11-21T21:58:07.971Z,26.10
2018-11-21T22:00:49.536Z,24.80
2018-11-21T22:03:30.675Z,25.20
2018-11-21T22:06:11.958Z,26.10
2018-11-21T22:08:53.498Z,25.70
2018-11-21T22:11:35.046Z,24.07
2018-11-21T22:14:16.229Z,26.97
2018-11-21T22:16:57.737Z,25.17
2018-11-21T22:19:39.139Z,23.60
2018-11-21T22:22:20.343Z,25.03
2018-11-21T22:25:01.630Z,28.47
2018-11-21T22:27:42.840Z,25.17
2018-11-21T22:30:24.008Z,25.60
2018-11-21T22:33:05.782Z,26.60
2018-11-21T22:35:47.643Z,25.97
2018-11-21T22:38:30.963Z,26.20
2018-11-21T22:41:09.908Z,26.80
2018-11-21T22:43:51.163Z,25.83
2018-11-21T22:46:32.271Z,24.40
2018-11-21T22:49:13.843Z,26.30
2018-11-21T22:51:55.676Z,27.77
2018-11-21T22:54:36.875Z,28.00
2018-11-21T22:57:06.115Z,28.27
2018-11-21T22:59:54.570Z,30.30
2018-11-21T23:02:43.101Z,32.47
2018-11-21T23:05:34.195Z,35.17
2018-11-21T23:08:19.997Z,35.10
2018-11-21T23:11:15.315Z,35.43
2018-11-21T23:14:03.713Z,38.67
2018-11-21T23:16:52.113Z,41.63
2018-11-21T23:19:40.597Z,42.20
2018-11-21T23:22:32.560Z,42.17
2018-11-21T23:25:17.529Z,43.67
2018-11-21T23:28:05.979Z,42.53
2018-11-21T23:30:54.467Z,43.17
2018-11-21T23:33:42.908Z,46.77
2018-11-21T23:36:31.370Z,44.17
2018-11-21T23:39:19.817Z,43.53
2018-11-21T23:42:08.285Z,44.47
2018-11-21T23:44:56.700Z,48.70
2018-11-21T23:47:45.474Z,44.20
2018-11-21T23:50:33.928Z,42.83
2018-11-21T23:53:22.379Z,45.17
2018-11-21T23:56:10.855Z,45.27
2018-11-21T23:58:40.025Z,48.93
